sensor_id;sensor_type;location;lat;lon;timestamp;P1;durP1;ratioP1;P2;durP2;ratioP2
59336;SDS011;45115;52.002;4.686;2023-03-01T00:01:50;27.63;;;14.15;;
59336;SDS011;45115;52.002;4.686;2023-03-01T00:04:17;32.75;;;15.63;;
59336;SDS011;45115;52.002;4.686;2023-03-01T00:06:44;29.58;;;14.73;;
59336;SDS011;45115;52.002;4.686;2023-03-01T00:09:11;32.20;;;16.08;;
59336;SDS011;45115;52.002;4.686;2023-03-01T00:11:38;33.15;;;16.27;;
59336;SDS011;45115;52.002;4.686;2023-03-01T00:14:04;30.15;;;16.20;;
59336;SDS011;45115;52.002;4.686;2023-03-01T00:16:33;33.40;;;16.83;;
59336;SDS011;45115;52.002;4.686;2023-03-01T00:18:59;33.25;;;17.35;;
59336;SDS011;45115;52.002;4.686;2023-03-01T00:21:27;32.28;;;15.68;;
59336;SDS011;45115;52.002;4.686;2023-03-01T00:23:54;30.08;;;15.40;;
59336;SDS011;45115;52.002;4.686;2023-03-01T00:26:24;31.77;;;14.82;;
59336;SDS011;45115;52.002;4.686;2023-03-01T00:28:50;31.38;;;15.90;;
59336;SDS011;45115;52.002;4.686;2023-03-01T00:31:18;33.00;;;15.98;;
59336;SDS011;45115;52.002;4.686;2023-03-01T00:33:45;32.25;;;16.58;;
59336;SDS011;45115;52.002;4.686;2023-03-01T00:36:12;35.33;;;16.05;;
59336;SDS011;45115;52.002;4.686;2023-03-01T00:38:41;36.65;;;17.88;;
59336;SDS011;45115;52.002;4.686;2023-03-01T00:41:09;33.88;;;17.33;;
59336;SDS011;45115;52.002;4.686;2023-03-01T00:43:36;36.38;;;17.23;;
59336;SDS011;45115;52.002;4.686;2023-03-01T00:46:02;33.45;;;17.85;;
59336;SDS011;45115;52.002;4.686;2023-03-01T00:48:29;36.28;;;17.63;;
59336;SDS011;45115;52.002;4.686;2023-03-01T00:50:56;42.13;;;19.80;;
59336;SDS011;45115;52.002;4.686;2023-03-01T00:53:22;40.03;;;19.85;;
59336;SDS011;45115;52.002;4.686;2023-03-01T00:55:50;40.17;;;20.33;;
59336;SDS011;45115;52.002;4.686;2023-03-01T00:58:17;45.78;;;22.23;;
59336;SDS011;45115;52.002;4.686;2023-03-01T01:00:44;48.05;;;25.30;;
59336;SDS011;45115;52.002;4.686;2023-03-01T01:03:10;50.40;;;25.27;;
59336;SDS011;45115;52.002;4.686;2023-03-01T01:05:37;47.20;;;26.10;;
59336;SDS011;45115;52.002;4.686;2023-03-01T01:08:03;50.65;;;26.65;;
59336;SDS011;45115;52.002;4.686;2023-03-01T01:10:30;52.45;;;26.08;;
59336;SDS011;45115;52.002;4.686;2023-03-01T01:13:00;53.47;;;28.33;;
59336;SDS011;45115;52.002;4.686;2023-03-01T01:15:27;51.13;;;26.33;;
59336;SDS011;45115;52.002;4.686;2023-03-01T01:17:53;53.85;;;26.60;;
59336;SDS011;45115;52.002;4.686;2023-03-01T01:20:20;49.63;;;27.25;;
59336;SDS011;45115;52.002;4.686;2023-03-01T01:22:47;52.10;;;27.80;;
59336;SDS011;45115;52.002;4.686;2023-03-01T01:25:14;55.75;;;28.98;;
59336;SDS011;45115;52.002;4.686;2023-03-01T01:27:40;54.03;;;28.27;;
59336;SDS011;45115;52.002;4.686;2023-03-01T01:30:09;49.90;;;27.08;;
59336;SDS011;45115;52.002;4.686;2023-03-01T01:32:36;55.42;;;28.00;;
59336;SDS011;45115;52.002;4.686;2023-03-01T01:35:03;52.42;;;28.35;;
59336;SDS011;45115;52.002;4.686;2023-03-01T01:37:29;49.92;;;26.58;;
59336;SDS011;45115;52.002;4.686;2023-03-01T01:39:57;49.63;;;26.00;;
59336;SDS011;45115;52.002;4.686;2023-03-01T01:42:24;54.08;;;27.85;;
59336;SDS011;45115;52.002;4.686;2023-03-01T01:47:33;52.38;;;26.38;;
59336;SDS011;45115;52.002;4.686;2023-03-01T01:50:00;49.53;;;24.67;;
59336;SDS011;45115;52.002;4.686;2023-03-01T01:52:27;50.42;;;25.88;;
59336;SDS011;45115;52.002;4.686;2023-03-01T01:54:56;52.20;;;26.90;;
59336;SDS011;45115;52.002;4.686;2023-03-01T01:57:26;51.28;;;27.02;;
59336;SDS011;45115;52.002;4.686;2023-03-01T01:59:54;47.58;;;25.92;;
59336;SDS011;45115;52.002;4.686;2023-03-01T02:02:22;51.38;;;25.88;;
59336;SDS011;45115;52.002;4.686;2023-03-01T02:04:52;47.45;;;24.65;;
59336;SDS011;45115;52.002;4.686;2023-03-01T02:07:19;47.47;;;26.63;;
59336;SDS011;45115;52.002;4.686;2023-03-01T02:09:47;54.45;;;27.17;;
59336;SDS011;45115;52.002;4.686;2023-03-01T02:12:14;55.45;;;27.00;;
59336;SDS011;45115;52.002;4.686;2023-03-01T02:14:41;53.90;;;27.23;;
59336;SDS011;45115;52.002;4.686;2023-03-01T02:17:07;51.15;;;26.83;;
59336;SDS011;45115;52.002;4.686;2023-03-01T02:19:39;50.00;;;26.05;;
59336;SDS011;45115;52.002;4.686;2023-03-01T02:22:12;47.92;;;24.58;;
59336;SDS011;45115;52.002;4.686;2023-03-01T02:24:42;52.25;;;26.35;;
59336;SDS011;45115;52.002;4.686;2023-03-01T02:27:12;52.28;;;26.25;;
59336;SDS011;45115;52.002;4.686;2023-03-01T02:29:40;47.63;;;24.50;;
59336;SDS011;45115;52.002;4.686;2023-03-01T02:32:09;49.17;;;24.83;;
59336;SDS011;45115;52.002;4.686;2023-03-01T02:34:36;50.75;;;24.33;;
59336;SDS011;45115;52.002;4.686;2023-03-01T02:37:04;46.05;;;22.95;;
59336;SDS011;45115;52.002;4.686;2023-03-01T02:39:31;42.00;;;22.90;;
59336;SDS011;45115;52.002;4.686;2023-03-01T02:41:59;46.47;;;24.20;;
59336;SDS011;45115;52.002;4.686;2023-03-01T02:44:26;51.70;;;25.05;;
59336;SDS011;45115;52.002;4.686;2023-03-01T02:46:55;53.30;;;25.98;;
59336;SDS011;45115;52.002;4.686;2023-03-01T02:49:23;48.47;;;25.33;;
59336;SDS011;45115;52.002;4.686;2023-03-01T02:54:39;45.03;;;23.73;;
59336;SDS011;45115;52.002;4.686;2023-03-01T02:57:06;47.30;;;24.48;;
59336;SDS011;45115;52.002;4.686;2023-03-01T02:59:34;48.65;;;22.58;;
59336;SDS011;45115;52.002;4.686;2023-03-01T03:02:07;45.25;;;23.98;;
59336;SDS011;45115;52.002;4.686;2023-03-01T03:04:33;48.08;;;21.73;;
59336;SDS011;45115;52.002;4.686;2023-03-01T03:07:00;45.00;;;23.30;;
59336;SDS011;45115;52.002;4.686;2023-03-01T03:09:27;47.15;;;23.58;;
59336;SDS011;45115;52.002;4.686;2023-03-01T03:11:55;45.17;;;23.08;;
59336;SDS011;45115;52.002;4.686;2023-03-01T03:14:22;44.22;;;23.45;;
59336;SDS011;45115;52.002;4.686;2023-03-01T03:16:49;44.10;;;23.08;;
59336;SDS011;45115;52.002;4.686;2023-03-01T03:19:17;46.92;;;22.08;;
59336;SDS011;45115;52.002;4.686;2023-03-01T03:21:44;46.45;;;23.48;;
59336;SDS011;45115;52.002;4.686;2023-03-01T03:24:10;47.58;;;25.00;;
59336;SDS011;45115;52.002;4.686;2023-03-01T03:26:37;51.63;;;25.08;;
59336;SDS011;45115;52.002;4.686;2023-03-01T03:29:03;46.50;;;24.42;;
59336;SDS011;45115;52.002;4.686;2023-03-01T03:31:30;47.90;;;24.77;;
59336;SDS011;45115;52.002;4.686;2023-03-01T03:33:57;44.30;;;23.02;;
59336;SDS011;45115;52.002;4.686;2023-03-01T03:36:28;49.05;;;23.98;;
59336;SDS011;45115;52.002;4.686;2023-03-01T03:38:55;41.97;;;23.05;;
59336;SDS011;45115;52.002;4.686;2023-03-01T03:41:22;46.03;;;22.30;;
59336;SDS011;45115;52.002;4.686;2023-03-01T03:43:48;45.47;;;23.17;;
59336;SDS011;45115;52.002;4.686;2023-03-01T03:46:14;43.25;;;21.08;;
59336;SDS011;45115;52.002;4.686;2023-03-01T03:48:42;46.90;;;22.83;;
59336;SDS011;45115;52.002;4.686;2023-03-01T03:51:09;46.67;;;22.25;;
59336;SDS011;45115;52.002;4.686;2023-03-01T03:53:37;51.03;;;24.15;;
59336;SDS011;45115;52.002;4.686;2023-03-01T03:56:04;46.85;;;23.55;;
59336;SDS011;45115;52.002;4.686;2023-03-01T03:58:32;44.20;;;21.80;;
59336;SDS011;45115;52.002;4.686;2023-03-01T04:00:58;45.40;;;23.73;;
59336;SDS011;45115;52.002;4.686;2023-03-01T04:03:26;51.58;;;23.75;;
59336;SDS011;45115;52.002;4.686;2023-03-01T04:05:52;48.92;;;23.85;;
59336;SDS011;45115;52.002;4.686;2023-03-01T04:08:19;51.05;;;23.42;;
59336;SDS011;45115;52.002;4.686;2023-03-01T04:10:48;49.47;;;22.58;;
59336;SDS011;45115;52.002;4.686;2023-03-01T04:13:15;44.58;;;21.33;;
59336;SDS011;45115;52.002;4.686;2023-03-01T04:15:42;40.42;;;21.35;;
59336;SDS011;45115;52.002;4.686;2023-03-01T04:18:09;46.47;;;23.27;;
59336;SDS011;45115;52.002;4.686;2023-03-01T04:20:37;42.92;;;22.45;;
59336;SDS011;45115;52.002;4.686;2023-03-01T04:23:05;48.08;;;22.48;;
59336;SDS011;45115;52.002;4.686;2023-03-01T04:25:38;48.33;;;21.40;;
59336;SDS011;45115;52.002;4.686;2023-03-01T04:28:06;37.15;;;21.20;;
59336;SDS011;45115;52.002;4.686;2023-03-01T04:30:33;44.25;;;22.02;;
59336;SDS011;45115;52.002;4.686;2023-03-01T04:33:01;45.92;;;21.85;;
59336;SDS011;45115;52.002;4.686;2023-03-01T04:35:28;43.67;;;22.00;;
59336;SDS011;45115;52.002;4.686;2023-03-01T04:37:54;41.70;;;20.83;;
59336;SDS011;45115;52.002;4.686;2023-03-01T04:40:21;42.95;;;22.48;;
59336;SDS011;45115;52.002;4.686;2023-03-01T04:42:47;43.72;;;20.40;;
59336;SDS011;45115;52.002;4.686;2023-03-01T04:45:15;43.42;;;21.65;;
59336;SDS011;45115;52.002;4.686;2023-03-01T04:47:42;44.38;;;21.98;;
59336;SDS011;45115;52.002;4.686;2023-03-01T04:50:09;46.08;;;20.75;;
59336;SDS011;45115;52.002;4.686;2023-03-01T04:52:36;41.80;;;20.27;;
59336;SDS011;45115;52.002;4.686;2023-03-01T04:55:03;38.00;;;18.27;;
59336;SDS011;45115;52.002;4.686;2023-03-01T04:57:30;41.88;;;19.15;;
59336;SDS011;45115;52.002;4.686;2023-03-01T04:59:57;37.90;;;19.70;;
59336;SDS011;45115;52.002;4.686;2023-03-01T05:02:25;34.65;;;17.48;;
59336;SDS011;45115;52.002;4.686;2023-03-01T05:04:51;35.28;;;17.63;;
59336;SDS011;45115;52.002;4.686;2023-03-01T05:07:22;35.03;;;17.48;;
59336;SDS011;45115;52.002;4.686;2023-03-01T05:09:49;39.05;;;18.98;;
59336;SDS011;45115;52.002;4.686;2023-03-01T05:12:16;34.88;;;18.05;;
59336;SDS011;45115;52.002;4.686;2023-03-01T05:14:42;40.58;;;18.00;;
59336;SDS011;45115;52.002;4.686;2023-03-01T05:17:09;39.50;;;18.92;;
59336;SDS011;45115;52.002;4.686;2023-03-01T05:19:37;38.78;;;20.02;;
59336;SDS011;45115;52.002;4.686;2023-03-01T05:22:03;40.72;;;18.75;;
59336;SDS011;45115;52.002;4.686;2023-03-01T05:24:30;41.85;;;20.08;;
59336;SDS011;45115;52.002;4.686;2023-03-01T05:26:57;43.00;;;19.50;;
59336;SDS011;45115;52.002;4.686;2023-03-01T05:29:24;38.67;;;20.17;;
59336;SDS011;45115;52.002;4.686;2023-03-01T05:31:51;41.00;;;21.35;;
59336;SDS011;45115;52.002;4.686;2023-03-01T05:34:19;41.00;;;20.45;;
59336;SDS011;45115;52.002;4.686;2023-03-01T05:36:49;40.42;;;20.20;;
59336;SDS011;45115;52.002;4.686;2023-03-01T05:39:18;40.97;;;20.00;;
59336;SDS011;45115;52.002;4.686;2023-03-01T05:41:45;39.05;;;19.75;;
59336;SDS011;45115;52.002;4.686;2023-03-01T05:44:11;32.10;;;16.63;;
59336;SDS011;45115;52.002;4.686;2023-03-01T05:46:38;38.78;;;18.02;;
59336;SDS011;45115;52.002;4.686;2023-03-01T05:49:04;38.13;;;17.08;;
59336;SDS011;45115;52.002;4.686;2023-03-01T05:51:31;38.75;;;17.45;;
59336;SDS011;45115;52.002;4.686;2023-03-01T05:54:00;37.63;;;18.23;;
59336;SDS011;45115;52.002;4.686;2023-03-01T05:56:26;36.95;;;17.00;;
59336;SDS011;45115;52.002;4.686;2023-03-01T05:58:54;38.90;;;18.30;;
59336;SDS011;45115;52.002;4.686;2023-03-01T06:01:20;37.55;;;18.33;;
59336;SDS011;45115;52.002;4.686;2023-03-01T06:03:47;40.90;;;17.88;;
59336;SDS011;45115;52.002;4.686;2023-03-01T06:06:13;33.40;;;17.02;;
59336;SDS011;45115;52.002;4.686;2023-03-01T06:08:40;33.90;;;16.73;;
59336;SDS011;45115;52.002;4.686;2023-03-01T06:11:10;32.85;;;16.75;;
59336;SDS011;45115;52.002;4.686;2023-03-01T06:13:37;32.50;;;15.40;;
59336;SDS011;45115;52.002;4.686;2023-03-01T06:16:04;32.17;;;16.55;;
59336;SDS011;45115;52.002;4.686;2023-03-01T06:18:30;31.17;;;15.40;;
59336;SDS011;45115;52.002;4.686;2023-03-01T06:20:57;31.67;;;16.23;;
59336;SDS011;45115;52.002;4.686;2023-03-01T06:23:23;33.20;;;16.02;;
59336;SDS011;45115;52.002;4.686;2023-03-01T06:25:50;30.65;;;16.00;;
59336;SDS011;45115;52.002;4.686;2023-03-01T06:28:18;32.30;;;16.70;;
59336;SDS011;45115;52.002;4.686;2023-03-01T06:30:44;32.88;;;16.33;;
59336;SDS011;45115;52.002;4.686;2023-03-01T06:33:11;32.83;;;16.65;;
59336;SDS011;45115;52.002;4.686;2023-03-01T06:35:37;34.10;;;16.63;;
59336;SDS011;45115;52.002;4.686;2023-03-01T06:38:06;30.30;;;16.02;;
59336;SDS011;45115;52.002;4.686;2023-03-01T06:40:33;33.10;;;16.98;;
59336;SDS011;45115;52.002;4.686;2023-03-01T06:43:00;33.83;;;16.40;;
59336;SDS011;45115;52.002;4.686;2023-03-01T06:45:28;30.00;;;15.50;;
59336;SDS011;45115;52.002;4.686;2023-03-01T06:48:01;30.35;;;14.73;;
59336;SDS011;45115;52.002;4.686;2023-03-01T06:50:27;32.97;;;16.65;;
59336;SDS011;45115;52.002;4.686;2023-03-01T06:52:55;34.47;;;16.20;;
59336;SDS011;45115;52.002;4.686;2023-03-01T06:55:21;32.55;;;16.00;;
59336;SDS011;45115;52.002;4.686;2023-03-01T06:57:48;36.83;;;19.05;;
59336;SDS011;45115;52.002;4.686;2023-03-01T07:00:14;34.50;;;18.15;;
59336;SDS011;45115;52.002;4.686;2023-03-01T07:02:42;33.92;;;17.40;;
59336;SDS011;45115;52.002;4.686;2023-03-01T07:05:09;32.63;;;17.38;;
59336;SDS011;45115;52.002;4.686;2023-03-01T07:07:35;38.88;;;18.33;;
59336;SDS011;45115;52.002;4.686;2023-03-01T07:10:02;39.20;;;19.20;;
59336;SDS011;45115;52.002;4.686;2023-03-01T07:12:28;38.65;;;18.83;;
59336;SDS011;45115;52.002;4.686;2023-03-01T07:14:55;37.10;;;18.55;;
59336;SDS011;45115;52.002;4.686;2023-03-01T07:17:21;36.95;;;17.80;;
59336;SDS011;45115;52.002;4.686;2023-03-01T07:19:49;39.33;;;18.33;;
59336;SDS011;45115;52.002;4.686;2023-03-01T07:22:16;37.63;;;18.27;;
59336;SDS011;45115;52.002;4.686;2023-03-01T07:24:42;43.35;;;20.00;;
59336;SDS011;45115;52.002;4.686;2023-03-01T07:27:09;48.42;;;21.98;;
59336;SDS011;45115;52.002;4.686;2023-03-01T07:29:36;41.00;;;21.00;;
59336;SDS011;45115;52.002;4.686;2023-03-01T07:32:03;47.60;;;22.05;;
59336;SDS011;45115;52.002;4.686;2023-03-01T07:34:29;46.30;;;20.80;;
59336;SDS011;45115;52.002;4.686;2023-03-01T07:36:57;48.42;;;22.40;;
59336;SDS011;45115;52.002;4.686;2023-03-01T07:39:24;46.38;;;22.10;;
59336;SDS011;45115;52.002;4.686;2023-03-01T07:41:50;48.70;;;22.80;;
59336;SDS011;45115;52.002;4.686;2023-03-01T07:44:20;47.23;;;22.73;;
59336;SDS011;45115;52.002;4.686;2023-03-01T07:46:47;40.90;;;21.17;;
59336;SDS011;45115;52.002;4.686;2023-03-01T07:49:13;43.55;;;21.20;;
59336;SDS011;45115;52.002;4.686;2023-03-01T07:51:40;45.55;;;21.90;;
59336;SDS011;45115;52.002;4.686;2023-03-01T07:54:08;44.05;;;23.20;;
59336;SDS011;45115;52.002;4.686;2023-03-01T07:56:34;41.58;;;21.45;;
59336;SDS011;45115;52.002;4.686;2023-03-01T07:59:01;42.03;;;19.55;;
59336;SDS011;45115;52.002;4.686;2023-03-01T08:01:27;42.17;;;19.73;;
59336;SDS011;45115;52.002;4.686;2023-03-01T08:03:54;32.30;;;16.45;;
59336;SDS011;45115;52.002;4.686;2023-03-01T08:06:20;29.15;;;13.25;;
59336;SDS011;45115;52.002;4.686;2023-03-01T08:08:47;23.48;;;12.23;;
59336;SDS011;45115;52.002;4.686;2023-03-01T08:11:15;23.55;;;11.88;;
59336;SDS011;45115;52.002;4.686;2023-03-01T08:13:41;20.50;;;10.00;;
59336;SDS011;45115;52.002;4.686;2023-03-01T08:16:10;19.25;;;9.55;;
59336;SDS011;45115;52.002;4.686;2023-03-01T08:18:37;20.20;;;10.10;;
59336;SDS011;45115;52.002;4.686;2023-03-01T08:21:03;19.27;;;9.05;;
59336;SDS011;45115;52.002;4.686;2023-03-01T08:23:30;18.95;;;9.88;;
59336;SDS011;45115;52.002;4.686;2023-03-01T08:26:02;19.05;;;8.85;;
59336;SDS011;45115;52.002;4.686;2023-03-01T08:28:30;19.13;;;8.88;;
59336;SDS011;45115;52.002;4.686;2023-03-01T08:30:57;18.40;;;9.38;;
59336;SDS011;45115;52.002;4.686;2023-03-01T08:33:23;17.20;;;7.90;;
59336;SDS011;45115;52.002;4.686;2023-03-01T08:35:49;16.67;;;8.38;;
59336;SDS011;45115;52.002;4.686;2023-03-01T08:38:16;17.40;;;8.43;;
59336;SDS011;45115;52.002;4.686;2023-03-01T08:40:42;16.88;;;8.43;;
59336;SDS011;45115;52.002;4.686;2023-03-01T08:43:09;16.80;;;7.95;;
59336;SDS011;45115;52.002;4.686;2023-03-01T08:45:37;13.10;;;6.45;;
59336;SDS011;45115;52.002;4.686;2023-03-01T08:48:04;13.73;;;6.50;;
59336;SDS011;45115;52.002;4.686;2023-03-01T08:50:30;13.35;;;7.03;;
59336;SDS011;45115;52.002;4.686;2023-03-01T08:52:56;12.40;;;6.63;;
59336;SDS011;45115;52.002;4.686;2023-03-01T08:55:23;14.38;;;7.05;;
59336;SDS011;45115;52.002;4.686;2023-03-01T08:57:49;15.52;;;7.93;;
59336;SDS011;45115;52.002;4.686;2023-03-01T09:00:16;14.75;;;7.35;;
59336;SDS011;45115;52.002;4.686;2023-03-01T09:02:44;17.90;;;7.95;;
59336;SDS011;45115;52.002;4.686;2023-03-01T09:05:10;18.58;;;7.65;;
59336;SDS011;45115;52.002;4.686;2023-03-01T09:07:37;14.48;;;7.75;;
59336;SDS011;45115;52.002;4.686;2023-03-01T09:10:04;14.00;;;7.18;;
59336;SDS011;45115;52.002;4.686;2023-03-01T09:12:30;15.70;;;7.78;;
59336;SDS011;45115;52.002;4.686;2023-03-01T09:14:57;16.02;;;7.65;;
59336;SDS011;45115;52.002;4.686;2023-03-01T09:17:23;15.48;;;6.95;;
59336;SDS011;45115;52.002;4.686;2023-03-01T09:19:51;15.40;;;7.80;;
59336;SDS011;45115;52.002;4.686;2023-03-01T09:22:17;15.73;;;7.70;;
59336;SDS011;45115;52.002;4.686;2023-03-01T09:24:44;14.95;;;7.60;;
59336;SDS011;45115;52.002;4.686;2023-03-01T09:27:10;15.57;;;7.90;;
59336;SDS011;45115;52.002;4.686;2023-03-01T09:29:38;14.52;;;7.68;;
59336;SDS011;45115;52.002;4.686;2023-03-01T09:32:04;13.98;;;6.80;;
59336;SDS011;45115;52.002;4.686;2023-03-01T09:34:31;16.05;;;7.40;;
59336;SDS011;45115;52.002;4.686;2023-03-01T09:37:19;14.85;;;6.82;;
59336;SDS011;45115;52.002;4.686;2023-03-01T09:39:46;12.88;;;7.10;;
59336;SDS011;45115;52.002;4.686;2023-03-01T09:42:12;12.70;;;7.03;;
59336;SDS011;45115;52.002;4.686;2023-03-01T09:44:42;15.75;;;7.18;;
59336;SDS011;45115;52.002;4.686;2023-03-01T09:47:11;13.38;;;7.05;;
59336;SDS011;45115;52.002;4.686;2023-03-01T09:49:39;13.70;;;7.07;;
59336;SDS011;45115;52.002;4.686;2023-03-01T09:52:25;13.75;;;6.40;;
59336;SDS011;45115;52.002;4.686;2023-03-01T09:54:56;13.15;;;6.47;;
59336;SDS011;45115;52.002;4.686;2023-03-01T09:57:26;13.43;;;6.22;;
59336;SDS011;45115;52.002;4.686;2023-03-01T09:59:56;12.38;;;6.03;;
59336;SDS011;45115;52.002;4.686;2023-03-01T10:02:31;10.60;;;5.82;;
59336;SDS011;45115;52.002;4.686;2023-03-01T10:05:01;12.20;;;5.80;;
59336;SDS011;45115;52.002;4.686;2023-03-01T10:07:32;10.75;;;5.97;;
59336;SDS011;45115;52.002;4.686;2023-03-01T10:10:05;13.85;;;6.93;;
59336;SDS011;45115;52.002;4.686;2023-03-01T10:12:33;15.73;;;7.40;;
59336;SDS011;45115;52.002;4.686;2023-03-01T10:15:02;14.55;;;6.90;;
59336;SDS011;45115;52.002;4.686;2023-03-01T10:17:30;14.40;;;7.35;;
59336;SDS011;45115;52.002;4.686;2023-03-01T10:20:05;17.23;;;8.13;;
59336;SDS011;45115;52.002;4.686;2023-03-01T10:22:36;16.85;;;8.65;;
59336;SDS011;45115;52.002;4.686;2023-03-01T10:25:03;18.95;;;9.00;;
59336;SDS011;45115;52.002;4.686;2023-03-01T10:27:34;16.52;;;7.90;;
59336;SDS011;45115;52.002;4.686;2023-03-01T10:30:05;16.15;;;7.88;;
59336;SDS011;45115;52.002;4.686;2023-03-01T10:32:32;14.45;;;7.22;;
59336;SDS011;45115;52.002;4.686;2023-03-01T10:34:59;15.27;;;7.22;;
59336;SDS011;45115;52.002;4.686;2023-03-01T10:37:25;14.05;;;7.07;;
59336;SDS011;45115;52.002;4.686;2023-03-01T10:39:56;14.45;;;7.35;;
59336;SDS011;45115;52.002;4.686;2023-03-01T10:42:25;15.02;;;7.40;;
59336;SDS011;45115;52.002;4.686;2023-03-01T10:44:53;13.25;;;7.55;;
59336;SDS011;45115;52.002;4.686;2023-03-01T10:47:20;18.88;;;8.00;;
59336;SDS011;45115;52.002;4.686;2023-03-01T10:49:58;17.30;;;7.43;;
59336;SDS011;45115;52.002;4.686;2023-03-01T10:52:26;16.35;;;7.57;;
59336;SDS011;45115;52.002;4.686;2023-03-01T10:54:54;16.70;;;7.68;;
59336;SDS011;45115;52.002;4.686;2023-03-01T10:57:26;18.08;;;7.90;;
59336;SDS011;45115;52.002;4.686;2023-03-01T11:00:09;15.50;;;7.78;;
59336;SDS011;45115;52.002;4.686;2023-03-01T11:02:40;17.23;;;7.95;;
59336;SDS011;45115;52.002;4.686;2023-03-01T11:05:14;14.93;;;7.75;;
59336;SDS011;45115;52.002;4.686;2023-03-01T11:07:47;16.42;;;7.82;;
59336;SDS011;45115;52.002;4.686;2023-03-01T11:10:16;14.00;;;6.88;;
59336;SDS011;45115;52.002;4.686;2023-03-01T11:12:43;13.70;;;6.90;;
59336;SDS011;45115;52.002;4.686;2023-03-01T11:15:19;14.43;;;6.97;;
59336;SDS011;45115;52.002;4.686;2023-03-01T11:17:46;14.25;;;6.68;;
59336;SDS011;45115;52.002;4.686;2023-03-01T11:20:15;13.30;;;7.20;;
59336;SDS011;45115;52.002;4.686;2023-03-01T11:22:45;13.30;;;6.50;;
59336;SDS011;45115;52.002;4.686;2023-03-01T11:25:12;16.10;;;7.95;;
59336;SDS011;45115;52.002;4.686;2023-03-01T11:27:40;15.15;;;6.78;;
59336;SDS011;45115;52.002;4.686;2023-03-01T11:30:12;13.52;;;6.25;;
59336;SDS011;45115;52.002;4.686;2023-03-01T11:32:44;15.13;;;6.75;;
59336;SDS011;45115;52.002;4.686;2023-03-01T11:35:14;12.98;;;6.75;;
59336;SDS011;45115;52.002;4.686;2023-03-01T11:37:44;12.55;;;6.43;;
59336;SDS011;45115;52.002;4.686;2023-03-01T11:40:12;10.75;;;6.03;;
59336;SDS011;45115;52.002;4.686;2023-03-01T11:42:48;12.63;;;5.60;;
59336;SDS011;45115;52.002;4.686;2023-03-01T11:45:16;12.60;;;5.57;;
59336;SDS011;45115;52.002;4.686;2023-03-01T11:47:51;11.02;;;5.60;;
59336;SDS011;45115;52.002;4.686;2023-03-01T11:50:25;11.98;;;6.05;;
59336;SDS011;45115;52.002;4.686;2023-03-01T11:52:57;10.65;;;5.18;;
59336;SDS011;45115;52.002;4.686;2023-03-01T11:57:57;12.48;;;5.55;;
59336;SDS011;45115;52.002;4.686;2023-03-01T12:00:31;12.10;;;5.80;;
59336;SDS011;45115;52.002;4.686;2023-03-01T12:06:03;11.80;;;5.40;;
59336;SDS011;45115;52.002;4.686;2023-03-01T12:08:35;12.68;;;5.47;;
59336;SDS011;45115;52.002;4.686;2023-03-01T12:11:06;13.13;;;5.78;;
59336;SDS011;45115;52.002;4.686;2023-03-01T12:16:37;11.77;;;5.50;;
59336;SDS011;45115;52.002;4.686;2023-03-01T12:21:59;11.10;;;5.18;;
59336;SDS011;45115;52.002;4.686;2023-03-01T12:24:36;12.57;;;5.28;;
59336;SDS011;45115;52.002;4.686;2023-03-01T12:27:10;10.13;;;5.00;;
59336;SDS011;45115;52.002;4.686;2023-03-01T12:29:39;13.55;;;5.72;;
59336;SDS011;45115;52.002;4.686;2023-03-01T12:34:55;10.60;;;5.40;;
59336;SDS011;45115;52.002;4.686;2023-03-01T12:37:35;12.70;;;5.88;;
59336;SDS011;45115;52.002;4.686;2023-03-01T12:40:13;10.45;;;5.25;;
59336;SDS011;45115;52.002;4.686;2023-03-01T12:42:44;10.93;;;5.22;;
59336;SDS011;45115;52.002;4.686;2023-03-01T12:45:30;11.25;;;5.60;;
59336;SDS011;45115;52.002;4.686;2023-03-01T12:48:03;11.60;;;5.55;;
59336;SDS011;45115;52.002;4.686;2023-03-01T12:50:32;11.60;;;5.47;;
59336;SDS011;45115;52.002;4.686;2023-03-01T12:53:03;11.68;;;5.55;;
59336;SDS011;45115;52.002;4.686;2023-03-01T12:55:31;10.52;;;5.57;;
59336;SDS011;45115;52.002;4.686;2023-03-01T12:58:01;10.13;;;5.55;;
59336;SDS011;45115;52.002;4.686;2023-03-01T13:00:31;12.52;;;5.80;;
59336;SDS011;45115;52.002;4.686;2023-03-01T13:02:59;13.80;;;5.93;;
59336;SDS011;45115;52.002;4.686;2023-03-01T13:05:31;11.15;;;5.28;;
59336;SDS011;45115;52.002;4.686;2023-03-01T13:08:01;11.02;;;5.80;;
59336;SDS011;45115;52.002;4.686;2023-03-01T13:10:34;11.48;;;5.20;;
59336;SDS011;45115;52.002;4.686;2023-03-01T13:13:14;9.57;;;5.22;;
59336;SDS011;45115;52.002;4.686;2023-03-01T13:15:44;10.43;;;5.32;;
59336;SDS011;45115;52.002;4.686;2023-03-01T13:21:06;10.50;;;5.30;;
59336;SDS011;45115;52.002;4.686;2023-03-01T13:23:35;10.73;;;5.18;;
59336;SDS011;45115;52.002;4.686;2023-03-01T13:26:05;12.25;;;6.03;;
59336;SDS011;45115;52.002;4.686;2023-03-01T13:28:48;10.85;;;5.60;;
59336;SDS011;45115;52.002;4.686;2023-03-01T13:34:03;10.77;;;5.80;;
59336;SDS011;45115;52.002;4.686;2023-03-01T13:36:47;9.80;;;5.55;;
59336;SDS011;45115;52.002;4.686;2023-03-01T13:39:27;13.90;;;6.28;;
59336;SDS011;45115;52.002;4.686;2023-03-01T13:41:58;11.82;;;5.38;;
59336;SDS011;45115;52.002;4.686;2023-03-01T13:44:28;9.30;;;5.55;;
59336;SDS011;45115;52.002;4.686;2023-03-01T13:46:56;11.50;;;6.00;;
59336;SDS011;45115;52.002;4.686;2023-03-01T13:49:25;10.23;;;5.28;;
59336;SDS011;45115;52.002;4.686;2023-03-01T13:51:53;12.30;;;4.78;;
59336;SDS011;45115;52.002;4.686;2023-03-01T13:54:21;11.70;;;6.05;;
59336;SDS011;45115;52.002;4.686;2023-03-01T13:56:50;9.80;;;5.38;;
59336;SDS011;45115;52.002;4.686;2023-03-01T13:59:18;12.20;;;5.65;;
59336;SDS011;45115;52.002;4.686;2023-03-01T14:01:53;10.63;;;5.78;;
59336;SDS011;45115;52.002;4.686;2023-03-01T14:04:21;11.68;;;5.50;;
59336;SDS011;45115;52.002;4.686;2023-03-01T14:06:48;11.55;;;5.65;;
59336;SDS011;45115;52.002;4.686;2023-03-01T14:09:16;12.52;;;6.18;;
59336;SDS011;45115;52.002;4.686;2023-03-01T14:11:57;12.25;;;5.70;;
59336;SDS011;45115;52.002;4.686;2023-03-01T14:14:31;11.18;;;6.20;;
59336;SDS011;45115;52.002;4.686;2023-03-01T14:17:04;11.98;;;5.38;;
59336;SDS011;45115;52.002;4.686;2023-03-01T14:21:58;11.77;;;5.57;;
59336;SDS011;45115;52.002;4.686;2023-03-01T14:24:27;12.35;;;5.43;;
59336;SDS011;45115;52.002;4.686;2023-03-01T14:26:53;11.23;;;5.47;;
59336;SDS011;45115;52.002;4.686;2023-03-01T14:29:24;12.18;;;5.35;;
59336;SDS011;45115;52.002;4.686;2023-03-01T14:31:52;11.35;;;5.82;;
59336;SDS011;45115;52.002;4.686;2023-03-01T14:34:19;10.30;;;5.32;;
59336;SDS011;45115;52.002;4.686;2023-03-01T14:36:46;10.15;;;5.60;;
59336;SDS011;45115;52.002;4.686;2023-03-01T14:39:16;8.48;;;4.95;;
59336;SDS011;45115;52.002;4.686;2023-03-01T14:41:43;10.95;;;5.07;;
59336;SDS011;45115;52.002;4.686;2023-03-01T14:44:12;12.50;;;5.95;;
59336;SDS011;45115;52.002;4.686;2023-03-01T14:46:41;11.32;;;5.30;;
59336;SDS011;45115;52.002;4.686;2023-03-01T14:49:10;10.68;;;5.32;;
59336;SDS011;45115;52.002;4.686;2023-03-01T14:54:10;10.30;;;5.07;;
59336;SDS011;45115;52.002;4.686;2023-03-01T14:56:45;11.70;;;5.30;;
59336;SDS011;45115;52.002;4.686;2023-03-01T14:59:12;8.07;;;4.70;;
59336;SDS011;45115;52.002;4.686;2023-03-01T15:01:39;8.65;;;5.10;;
59336;SDS011;45115;52.002;4.686;2023-03-01T15:04:06;11.05;;;5.32;;
59336;SDS011;45115;52.002;4.686;2023-03-01T15:06:36;9.65;;;5.47;;